createdAt,value
2022-08-03T00:02:18.140Z,84.30
2022-08-03T00:04:45.951Z,84.60
2022-08-03T00:07:13.324Z,84.60
2022-08-03T00:09:40.711Z,85.00
2022-08-03T00:12:08.335Z,85.00
2022-08-03T00:14:35.871Z,85.00
2022-08-03T00:17:03.715Z,85.50
2022-08-03T00:19:31.157Z,86.10
2022-08-03T00:21:58.490Z,85.60
2022-08-03T00:24:25.767Z,86.00
2022-08-03T00:26:53.622Z,86.20
2022-08-03T00:29:21.013Z,86.50
2022-08-03T00:31:59.214Z,86.90
2022-08-03T00:34:36.452Z,87.50
2022-08-03T00:37:15.305Z,87.80
2022-08-03T00:39:46.125Z,87.80
2022-08-03T00:42:14.053Z,87.90
2022-08-03T00:44:43.076Z,88.80
2022-08-03T00:47:11.554Z,88.40
2022-08-03T00:49:41.002Z,88.70
2022-08-03T00:52:13.920Z,88.90
2022-08-03T00:54:41.635Z,89.70
2022-08-03T00:57:09.403Z,89.30
2022-08-03T00:59:38.504Z,89.20
2022-08-03T01:02:06.661Z,89.40
2022-08-03T01:04:34.407Z,89.90
2022-08-03T01:07:17.657Z,90.10
2022-08-03T01:09:50.914Z,90.20
2022-08-03T01:12:44.292Z,90.30
2022-08-03T01:15:31.795Z,90.50
2022-08-03T01:18:05.014Z,90.70
2022-08-03T01:20:35.764Z,90.90
2022-08-03T01:23:21.809Z,91.10
2022-08-03T01:26:20.577Z,91.20
2022-08-03T01:29:39.242Z,91.50
2022-08-03T01:32:58.318Z,91.90
2022-08-03T01:35:08.854Z,92.30
2022-08-03T01:37:52.384Z,92.50
2022-08-03T01:40:22.851Z,92.40
2022-08-03T01:42:53.147Z,92.40
2022-08-03T01:45:23.260Z,92.60
2022-08-03T01:47:53.986Z,92.70
2022-08-03T01:50:29.083Z,93.10
2022-08-03T01:52:59.242Z,93.40
2022-08-03T01:55:28.591Z,93.20
2022-08-03T01:58:05.452Z,93.70
2022-08-03T02:00:38.235Z,93.50
2022-08-03T02:03:08.142Z,94.20
2022-08-03T02:05:37.137Z,94.30
2022-08-03T02:08:08.427Z,94.00
2022-08-03T02:10:38.147Z,94.30
2022-08-03T02:13:09.425Z,94.20
2022-08-03T02:15:38.886Z,94.40
2022-08-03T02:18:10.130Z,94.50
2022-08-03T02:20:40.689Z,94.90
2022-08-03T02:23:09.800Z,95.10
2022-08-03T02:25:45.171Z,95.00
2022-08-03T02:28:20.448Z,95.10
2022-08-03T02:30:57.351Z,95.60
2022-08-03T02:33:34.581Z,95.80
2022-08-03T02:36:04.030Z,95.80
2022-08-03T02:38:39.498Z,95.50
2022-08-03T02:41:14.391Z,95.90
2022-08-03T02:44:05.653Z,96.00
2022-08-03T02:46:38.909Z,96.20
2022-08-03T02:49:41.018Z,96.50
2022-08-03T02:51:58.503Z,96.40
2022-08-03T02:54:28.286Z,96.50
2022-08-03T02:56:59.488Z,96.70
2022-08-03T02:59:32.028Z,97.00
2022-08-03T03:02:02.393Z,97.40
2022-08-03T03:04:33.226Z,97.60
2022-08-03T03:07:04.395Z,97.40
2022-08-03T03:09:41.492Z,97.50
2022-08-03T03:12:13.527Z,97.90
2022-08-03T03:14:41.096Z,97.80
2022-08-03T03:17:10.633Z,98.00
2022-08-03T03:19:40.718Z,98.30
2022-08-03T03:22:09.632Z,98.40
2022-08-03T03:24:38.218Z,98.40
2022-08-03T03:27:05.812Z,98.50
2022-08-03T03:29:39.454Z,98.70
2022-08-03T03:32:08.449Z,98.60
2022-08-03T03:34:37.530Z,98.60
2022-08-03T03:37:05.494Z,98.50
2022-08-03T03:39:32.799Z,98.60
2022-08-03T03:42:01.336Z,98.80
2022-08-03T03:44:29.860Z,98.80
2022-08-03T03:46:58.918Z,99.00
2022-08-03T03:49:27.325Z,99.10
2022-08-03T03:51:55.822Z,99.00
2022-08-03T03:54:25.309Z,99.10
2022-08-03T03:56:53.164Z,99.40
2022-08-03T03:59:20.428Z,99.30
2022-08-03T04:01:47.818Z,99.40
2022-08-03T04:04:44.835Z,99.30
2022-08-03T04:07:30.760Z,99.40
2022-08-03T04:10:16.991Z,99.70
2022-08-03T04:12:50.062Z,99.80
2022-08-03T04:15:21.779Z,99.80
2022-08-03T04:17:52.674Z,99.90
2022-08-03T04:20:21.901Z,99.90
2022-08-03T04:22:52.011Z,99.90
2022-08-03T04:25:22.828Z,99.90
2022-08-03T04:28:28.327Z,99.90
2022-08-03T04:30:47.779Z,99.90
2022-08-03T04:33:16.893Z,99.90
2022-08-03T04:35:54.749Z,99.60
2022-08-03T04:38:36.995Z,99.20
2022-08-03T04:41:05.285Z,99.20
2022-08-03T04:43:34.483Z,99.30
2022-08-03T04:46:02.844Z,99.10
2022-08-03T04:48:30.474Z,98.90
2022-08-03T04:50:58.132Z,98.80
2022-08-03T04:53:25.351Z,98.70
2022-08-03T04:55:52.914Z,98.70
2022-08-03T04:58:20.170Z,98.70
2022-08-03T05:00:51.312Z,97.90
2022-08-03T05:03:20.037Z,97.40
2022-08-03T05:05:53.217Z,97.30
2022-08-03T05:08:30.004Z,97.10
2022-08-03T05:10:59.535Z,97.10
2022-08-03T05:13:27.001Z,96.60
2022-08-03T05:15:54.383Z,96.00
2022-08-03T05:18:22.297Z,95.90
2022-08-03T05:20:49.673Z,95.70
2022-08-03T05:23:17.055Z,95.30
2022-08-03T05:25:46.116Z,94.80
2022-08-03T05:28:17.347Z,94.40
2022-08-03T05:30:44.870Z,93.80
2022-08-03T05:33:12.428Z,93.60
2022-08-03T05:36:02.561Z,92.50
2022-08-03T05:38:34.186Z,92.90
2022-08-03T05:41:20.442Z,92.30
2022-08-03T05:43:52.432Z,91.40
2022-08-03T05:46:20.990Z,91.30
2022-08-03T05:48:48.420Z,90.70
2022-08-03T05:51:15.821Z,89.80
2022-08-03T05:53:44.055Z,89.10
2022-08-03T05:56:14.133Z,89.50
2022-08-03T05:58:49.204Z,88.70
2022-08-03T06:01:17.741Z,87.70
2022-08-03T06:03:46.416Z,86.10
2022-08-03T06:06:14.369Z,85.50
2022-08-03T06:08:43.382Z,84.80
2022-08-03T06:11:10.959Z,82.70
2022-08-03T06:13:38.730Z,83.10
2022-08-03T06:16:06.160Z,82.50
2022-08-03T06:18:33.529Z,81.90
2022-08-03T06:21:14.565Z,81.70
2022-08-03T06:23:54.953Z,82.60
2022-08-03T06:26:27.698Z,80.50
2022-08-03T06:28:55.552Z,81.00
2022-08-03T06:31:33.372Z,80.30
2022-08-03T06:34:33.070Z,78.50
2022-08-03T06:36:54.777Z,79.40
2022-08-03T06:39:24.609Z,78.40
2022-08-03T06:41:52.949Z,78.50
2022-08-03T06:44:20.427Z,78.00
2022-08-03T06:46:48.046Z,77.20
2022-08-03T06:49:15.254Z,76.60
2022-08-03T06:52:03.081Z,76.70
2022-08-03T06:54:32.892Z,76.10
2022-08-03T06:57:01.045Z,75.40
2022-08-03T07:00:08.644Z,75.20
2022-08-03T07:02:19.334Z,74.80
2022-08-03T07:04:48.578Z,75.30
2022-08-03T07:07:15.979Z,75.10
2022-08-03T07:09:43.154Z,74.90
2022-08-03T07:12:25.210Z,72.50
2022-08-03T07:14:55.516Z,72.90
2022-08-03T07:17:25.772Z,72.30
2022-08-03T07:19:53.142Z,73.00
2022-08-03T07:22:20.571Z,71.60
2022-08-03T07:24:48.102Z,71.80
2022-08-03T07:27:16.652Z,71.40
2022-08-03T07:29:43.881Z,72.40
2022-08-03T07:32:11.343Z,70.70
2022-08-03T07:34:38.783Z,71.80
2022-08-03T07:37:06.105Z,70.30
2022-08-03T07:39:33.784Z,69.60
2022-08-03T07:42:01.109Z,69.70
2022-08-03T07:44:28.361Z,70.80
2022-08-03T07:46:55.670Z,69.60
2022-08-03T07:49:24.160Z,70.20
2022-08-03T07:52:11.408Z,68.90
2022-08-03T07:54:39.078Z,70.20
2022-08-03T07:57:06.721Z,70.00
2022-08-03T07:59:57.000Z,69.10
2022-08-03T08:02:23.298Z,70.20
2022-08-03T08:04:50.545Z,70.70
2022-08-03T08:07:17.991Z,69.60
2022-08-03T08:09:47.934Z,68.50
2022-08-03T08:12:16.099Z,69.40
2022-08-03T08:14:46.910Z,69.10
2022-08-03T08:17:14.972Z,66.50
2022-08-03T08:19:51.388Z,67.20
2022-08-03T08:22:23.473Z,67.20
2022-08-03T08:24:59.621Z,67.80
2022-08-03T08:28:29.133Z,66.10
2022-08-03T08:30:20.117Z,66.60
2022-08-03T08:32:48.335Z,65.90
2022-08-03T08:35:16.098Z,65.00
2022-08-03T08:37:44.407Z,66.10
2022-08-03T08:40:21.536Z,66.60
2022-08-03T08:42:58.331Z,65.60
2022-08-03T08:45:26.637Z,66.20
2022-08-03T08:48:00.195Z,65.40
2022-08-03T08:50:29.955Z,63.90
2022-08-03T08:53:01.075Z,65.40
2022-08-03T08:55:28.767Z,64.00
2022-08-03T08:58:01.969Z,63.70
2022-08-03T09:00:31.115Z,64.00
2022-08-03T09:02:59.028Z,64.10
2022-08-03T09:05:54.635Z,63.80
2022-08-03T09:08:14.403Z,63.30
2022-08-03T09:10:41.734Z,64.30
2022-08-03T09:13:09.103Z,63.10
2022-08-03T09:15:38.295Z,61.70
2022-08-03T09:18:05.795Z,62.10
2022-08-03T09:20:35.123Z,61.90
2022-08-03T09:23:33.431Z,63.10
2022-08-03T09:25:59.791Z,64.00
2022-08-03T09:28:59.704Z,61.40
2022-08-03T09:31:44.047Z,61.10
2022-08-03T09:34:14.159Z,61.40
2022-08-03T09:36:44.997Z,61.30
2022-08-03T09:39:14.816Z,59.50
2022-08-03T09:41:44.366Z,60.50
2022-08-03T09:44:24.442Z,61.00
2022-08-03T09:46:56.414Z,61.50
2022-08-03T09:49:25.254Z,61.90
2022-08-03T09:52:37.693Z,61.50
2022-08-03T09:54:42.526Z,64.00
2022-08-03T09:57:23.893Z,61.20
2022-08-03T10:00:03.049Z,59.70
2022-08-03T10:02:40.611Z,60.20
2022-08-03T10:05:10.221Z,59.60
2022-08-03T10:07:50.221Z,60.10
2022-08-03T10:10:30.468Z,62.30
2022-08-03T10:12:58.962Z,59.60
2022-08-03T10:16:23.398Z,60.10
2022-08-03T10:18:14.576Z,60.10
2022-08-03T10:20:52.061Z,59.70
2022-08-03T10:23:21.744Z,58.70
2022-08-03T10:25:54.941Z,58.10
2022-08-03T10:28:22.722Z,58.50
2022-08-03T10:30:52.967Z,57.50
2022-08-03T10:33:51.372Z,57.10
2022-08-03T10:36:09.819Z,58.00
2022-08-03T10:38:47.312Z,57.00
2022-08-03T10:41:18.233Z,58.40
2022-08-03T10:43:59.450Z,58.60
2022-08-03T10:46:28.967Z,58.60
2022-08-03T10:48:58.046Z,58.80
2022-08-03T10:51:30.712Z,59.50
2022-08-03T10:53:58.640Z,59.10
2022-08-03T10:56:54.356Z,58.80
2022-08-03T10:59:47.475Z,57.60
2022-08-03T11:02:15.360Z,56.10
2022-08-03T11:04:43.152Z,57.60
2022-08-03T11:07:22.517Z,58.10
2022-08-03T11:09:54.793Z,56.80
2022-08-03T11:12:32.113Z,57.70
2022-08-03T11:15:05.742Z,57.00
2022-08-03T11:17:46.573Z,57.00
2022-08-03T11:20:55.314Z,57.10
2022-08-03T11:24:02.434Z,55.80
2022-08-03T11:26:31.102Z,56.00
2022-08-03T11:29:29.349Z,54.90
2022-08-03T11:31:57.173Z,55.70
2022-08-03T11:34:25.045Z,53.70
2022-08-03T11:37:23.590Z,55.00
2022-08-03T11:39:54.877Z,54.50
2022-08-03T11:42:25.733Z,55.00
2022-08-03T11:45:00.601Z,54.60
2022-08-03T11:47:29.966Z,53.80
2022-08-03T11:50:02.327Z,54.80
2022-08-03T11:52:38.509Z,55.10
2022-08-03T11:55:10.701Z,55.30
2022-08-03T11:58:58.248Z,55.70
2022-08-03T12:00:33.293Z,57.10
2022-08-03T12:03:12.451Z,55.40
2022-08-03T12:05:52.909Z,55.80
2022-08-03T12:08:32.545Z,55.20
2022-08-03T12:11:02.171Z,56.00
2022-08-03T12:14:44.169Z,56.50
2022-08-03T12:16:29.092Z,55.70
2022-08-03T12:19:04.344Z,56.90
2022-08-03T12:21:32.134Z,57.00
2022-08-03T12:24:04.718Z,55.80
2022-08-03T12:26:58.716Z,56.30
2022-08-03T12:29:27.583Z,56.70
2022-08-03T12:31:55.948Z,56.10
2022-08-03T12:34:23.719Z,57.60
2022-08-03T12:36:53.178Z,57.70
2022-08-03T12:39:25.448Z,58.20
2022-08-03T12:41:57.165Z,57.40
2022-08-03T12:44:31.711Z,57.50
2022-08-03T12:47:00.122Z,56.90
2022-08-03T12:49:28.467Z,57.20
2022-08-03T12:51:58.174Z,55.80
2022-08-03T12:54:28.247Z,54.60
2022-08-03T12:57:00.627Z,56.10
2022-08-03T12:59:35.320Z,55.80
2022-08-03T13:02:14.701Z,55.50
2022-08-03T13:04:43.433Z,56.70
2022-08-03T13:07:12.888Z,55.40
2022-08-03T13:09:50.380Z,53.40
2022-08-03T13:12:20.970Z,53.60
2022-08-03T13:14:55.354Z,53.50
2022-08-03T13:17:22.981Z,53.50
2022-08-03T13:19:50.744Z,52.80
2022-08-03T13:22:20.501Z,53.20
2022-08-03T13:24:49.449Z,53.20
2022-08-03T13:28:01.630Z,53.80
2022-08-03T13:30:05.146Z,52.50
2022-08-03T13:32:33.784Z,53.70
2022-08-03T13:35:03.135Z,54.00
2022-08-03T13:37:32.488Z,53.30
2022-08-03T13:40:03.075Z,54.20
2022-08-03T13:42:33.488Z,53.80
2022-08-03T13:45:02.430Z,52.30
2022-08-03T13:47:29.988Z,51.80
2022-08-03T13:50:00.894Z,53.50
2022-08-03T13:52:34.781Z,53.20
2022-08-03T13:55:03.866Z,52.60
2022-08-03T13:58:06.190Z,52.80
2022-08-03T14:00:26.984Z,52.20
2022-08-03T14:03:15.336Z,51.80
2022-08-03T14:05:46.103Z,51.60
2022-08-03T14:08:13.595Z,52.30
2022-08-03T14:10:44.241Z,51.40
2022-08-03T14:13:16.950Z,51.70
2022-08-03T14:15:50.057Z,51.20
2022-08-03T14:18:29.168Z,52.70
2022-08-03T14:21:06.966Z,50.80
2022-08-03T14:23:36.801Z,50.60
2022-08-03T14:26:09.462Z,52.50
2022-08-03T14:28:36.891Z,50.90
2022-08-03T14:31:08.473Z,49.20
2022-08-03T14:33:52.720Z,48.50
2022-08-03T14:36:19.903Z,48.10
2022-08-03T14:38:47.901Z,49.10
2022-08-03T14:41:19.990Z,50.30
2022-08-03T14:44:01.732Z,49.80
2022-08-03T14:46:30.332Z,50.00
2022-08-03T14:50:33.697Z,49.90
2022-08-03T14:51:51.411Z,49.30
2022-08-03T14:54:21.881Z,50.90
2022-08-03T14:56:49.073Z,51.30
2022-08-03T14:59:16.472Z,50.40
2022-08-03T15:02:02.425Z,51.70
2022-08-03T15:04:31.296Z,50.10
2022-08-03T15:06:58.635Z,48.30
2022-08-03T15:09:25.816Z,50.30
2022-08-03T15:11:53.115Z,49.80
2022-08-03T15:14:22.205Z,50.20
2022-08-03T15:16:55.700Z,49.60
2022-08-03T15:20:03.240Z,48.30
2022-08-03T15:22:10.145Z,50.60
2022-08-03T15:24:40.122Z,48.80
2022-08-03T15:27:07.344Z,50.90
2022-08-03T15:30:08.716Z,51.40
2022-08-03T15:32:22.851Z,51.40
2022-08-03T15:34:50.943Z,50.40
2022-08-03T15:37:19.641Z,51.80
2022-08-03T15:40:00.047Z,50.70
2022-08-03T15:42:33.048Z,52.00
2022-08-03T15:45:00.396Z,50.50
2022-08-03T15:47:27.713Z,50.70
2022-08-03T15:49:56.379Z,50.90
2022-08-03T15:52:23.874Z,51.30
2022-08-03T15:54:51.247Z,49.70
2022-08-03T15:57:18.816Z,49.70
2022-08-03T15:59:46.435Z,50.10
2022-08-03T16:02:13.695Z,49.90
2022-08-03T16:04:41.100Z,49.60
2022-08-03T16:07:12.854Z,50.60
2022-08-03T16:09:42.388Z,51.80
2022-08-03T16:12:13.280Z,51.30
2022-08-03T16:14:52.371Z,51.00
2022-08-03T16:17:22.234Z,50.60
2022-08-03T16:19:50.116Z,50.40
2022-08-03T16:22:20.125Z,51.10
2022-08-03T16:24:50.620Z,51.10
2022-08-03T16:27:56.913Z,54.20
2022-08-03T16:30:07.496Z,52.20
2022-08-03T16:32:35.068Z,52.60
2022-08-03T16:35:02.479Z,53.50
2022-08-03T16:37:39.050Z,54.10
2022-08-03T16:40:17.356Z,53.00
2022-08-03T16:42:47.320Z,53.40
2022-08-03T16:45:14.774Z,52.50
2022-08-03T16:47:42.185Z,52.50
2022-08-03T16:50:17.249Z,54.80
2022-08-03T16:52:48.338Z,52.40
2022-08-03T16:55:28.585Z,50.90
2022-08-03T16:58:05.033Z,51.90
2022-08-03T17:00:41.731Z,52.90
2022-08-03T17:03:18.591Z,52.90
2022-08-03T17:05:49.753Z,52.90
2022-08-03T17:08:27.002Z,53.00
2022-08-03T17:10:55.899Z,52.70
2022-08-03T17:13:38.910Z,53.40
2022-08-03T17:16:10.715Z,53.20
2022-08-03T17:19:01.978Z,53.20
2022-08-03T17:21:33.567Z,52.80
2022-08-03T17:24:28.439Z,53.40
2022-08-03T17:26:56.846Z,53.40
2022-08-03T17:29:26.965Z,53.40
2022-08-03T17:31:57.581Z,53.50
2022-08-03T17:34:26.296Z,53.40
2022-08-03T17:37:17.731Z,53.80
2022-08-03T17:39:59.561Z,53.90
2022-08-03T17:42:30.422Z,54.30
2022-08-03T17:45:02.277Z,54.00
2022-08-03T17:47:42.838Z,54.60
2022-08-03T17:50:25.750Z,54.30
2022-08-03T17:53:15.137Z,54.20
2022-08-03T17:56:04.083Z,54.50
2022-08-03T17:58:39.764Z,55.00
2022-08-03T18:01:59.299Z,55.30
2022-08-03T18:04:30.371Z,55.40
2022-08-03T18:07:00.682Z,55.60
2022-08-03T18:10:04.315Z,55.80
2022-08-03T18:12:44.133Z,56.20
2022-08-03T18:15:21.366Z,56.60
2022-08-03T18:17:55.683Z,57.50
2022-08-03T18:20:32.160Z,57.00
2022-08-03T18:23:04.859Z,57.10
2022-08-03T18:25:45.310Z,57.30
2022-08-03T18:28:25.196Z,58.30
2022-08-03T18:30:55.411Z,58.20
2022-08-03T18:34:18.464Z,58.90
2022-08-03T18:36:17.603Z,58.70
2022-08-03T18:38:49.179Z,59.50
2022-08-03T18:41:20.897Z,59.80
2022-08-03T18:44:09.040Z,59.70
2022-08-03T18:46:49.923Z,61.30
2022-08-03T18:49:36.105Z,62.30
2022-08-03T18:52:12.453Z,62.10
2022-08-03T18:55:09.543Z,62.50
2022-08-03T18:57:56.340Z,63.30
2022-08-03T19:00:42.354Z,62.10
2022-08-03T19:03:20.535Z,62.00
2022-08-03T19:06:14.653Z,63.20
2022-08-03T19:08:50.332Z,65.90
2022-08-03T19:11:28.218Z,67.60
2022-08-03T19:13:59.901Z,64.20
2022-08-03T19:16:43.975Z,62.20
2022-08-03T19:19:14.534Z,62.40
2022-08-03T19:21:42.067Z,62.60
2022-08-03T19:24:10.332Z,62.60
2022-08-03T19:26:39.881Z,66.40
2022-08-03T19:32:00.021Z,67.60
2022-08-03T19:34:30.248Z,65.20
2022-08-03T19:36:59.220Z,64.50
2022-08-03T19:39:27.541Z,63.30
2022-08-03T19:42:06.332Z,63.40
2022-08-03T19:44:41.598Z,64.20
2022-08-03T19:47:16.909Z,64.70
2022-08-03T19:50:05.379Z,65.70
2022-08-03T19:52:38.292Z,66.90
2022-08-03T19:55:12.044Z,68.00
2022-08-03T19:57:43.621Z,67.80
2022-08-03T20:00:14.328Z,68.30
2022-08-03T20:02:43.180Z,71.10
2022-08-03T20:05:15.495Z,67.60
2022-08-03T20:07:47.817Z,67.30
2022-08-03T20:10:19.848Z,67.50
2022-08-03T20:12:49.306Z,67.00
2022-08-03T20:15:18.309Z,67.30
2022-08-03T20:17:56.149Z,67.70
2022-08-03T20:20:39.888Z,67.40
2022-08-03T20:23:20.138Z,68.30
2022-08-03T20:25:58.428Z,68.80
2022-08-03T20:28:36.126Z,70.20
2022-08-03T20:31:21.619Z,69.60
2022-08-03T20:33:51.309Z,70.20
2022-08-03T20:36:19.144Z,71.20
2022-08-03T20:38:48.226Z,73.10
2022-08-03T20:41:17.327Z,72.40
2022-08-03T20:43:45.467Z,72.40
2022-08-03T20:46:32.056Z,70.40
2022-08-03T20:49:04.097Z,70.80
2022-08-03T20:51:50.550Z,70.50
2022-08-03T20:54:30.651Z,70.90
2022-08-03T20:57:03.863Z,71.20
2022-08-03T20:59:50.461Z,71.40
2022-08-03T21:02:30.557Z,70.90
2022-08-03T21:05:03.279Z,70.30
2022-08-03T21:08:04.256Z,72.00
2022-08-03T21:10:30.981Z,72.30
2022-08-03T21:13:08.789Z,67.10
2022-08-03T21:13:23.177Z,73.20
2022-08-03T21:16:06.139Z,73.20
2022-08-03T21:18:48.958Z,72.70
2022-08-03T21:21:19.308Z,70.90
2022-08-03T21:23:51.010Z,75.60
2022-08-03T21:26:20.306Z,74.40
2022-08-03T21:28:49.318Z,74.60
2022-08-03T21:31:25.402Z,74.60
2022-08-03T21:33:55.841Z,75.50
2022-08-03T21:36:23.703Z,74.00
2022-08-03T21:38:56.442Z,73.00
2022-08-03T21:41:26.750Z,74.60
2022-08-03T21:43:54.045Z,73.30
2022-08-03T21:46:23.727Z,74.70
2022-08-03T21:49:51.720Z,76.50
2022-08-03T21:51:50.625Z,73.90
2022-08-03T21:54:21.670Z,76.80
2022-08-03T21:56:54.179Z,75.90
2022-08-03T21:59:23.898Z,77.60
2022-08-03T22:01:55.471Z,74.70
2022-08-03T22:04:38.807Z,76.90
2022-08-03T22:07:14.440Z,77.60
2022-08-03T22:09:50.151Z,78.70
2022-08-03T22:12:24.111Z,77.40
2022-08-03T22:15:00.376Z,75.50
2022-08-03T22:17:55.653Z,75.40
2022-08-03T22:20:17.114Z,76.70
2022-08-03T22:22:55.519Z,76.60
2022-08-03T22:25:32.483Z,77.00
2022-08-03T22:28:11.800Z,77.00
2022-08-03T22:30:40.392Z,76.90
2022-08-03T22:33:11.178Z,77.80
2022-08-03T22:35:49.392Z,79.00
2022-08-03T22:38:19.985Z,76.90
2022-08-03T22:40:51.231Z,77.00
2022-08-03T22:43:23.091Z,77.10
2022-08-03T22:46:09.742Z,77.60
2022-08-03T22:48:41.316Z,77.70
2022-08-03T22:51:09.851Z,79.10
2022-08-03T22:53:39.077Z,80.40
2022-08-03T22:56:07.851Z,81.50
2022-08-03T22:58:35.125Z,80.00
2022-08-03T23:01:06.994Z,79.00
2022-08-03T23:03:59.852Z,78.70
2022-08-03T23:06:42.786Z,78.20
2022-08-03T23:09:12.439Z,79.00
2022-08-03T23:11:45.776Z,80.80
2022-08-03T23:14:16.505Z,81.20
2022-08-03T23:16:45.307Z,80.10
2022-08-03T23:19:17.024Z,80.40
2022-08-03T23:22:02.583Z,80.00
2022-08-03T23:24:36.245Z,80.40
2022-08-03T23:27:06.048Z,80.30
2022-08-03T23:29:40.324Z,81.00
2022-08-03T23:32:08.578Z,81.50
2022-08-03T23:34:58.172Z,81.30
2022-08-03T23:37:26.754Z,80.80
2022-08-03T23:39:57.211Z,80.90
2022-08-03T23:42:25.723Z,80.30
2022-08-03T23:44:56.852Z,79.30
2022-08-03T23:47:46.251Z,79.20
2022-08-03T23:50:15.675Z,79.50
2022-08-03T23:53:18.757Z,79.90
2022-08-03T23:56:21.271Z,79.20
2022-08-03T23:59:03.552Z,79.60
